sensor_id;sensor_type;location;lat;lon;timestamp;P1;durP1;ratioP1;P2;durP2;ratioP2
19219;SDS011;9744;49.364;7.484;2023-03-01T00:00:54;17.27;;;9.77;;
19219;SDS011;9744;49.364;7.484;2023-03-01T00:03:26;17.90;;;9.57;;
19219;SDS011;9744;49.364;7.484;2023-03-01T00:05:56;19.00;;;9.73;;
19219;SDS011;9744;49.364;7.484;2023-03-01T00:08:23;18.57;;;10.23;;
19219;SDS011;9744;49.364;7.484;2023-03-01T00:10:59;18.73;;;9.67;;
19219;SDS011;9744;49.364;7.484;2023-03-01T00:13:27;16.23;;;9.20;;
19219;SDS011;9744;49.364;7.484;2023-03-01T00:15:55;18.77;;;9.10;;
19219;SDS011;9744;49.364;7.484;2023-03-01T00:18:22;17.40;;;10.10;;
19219;SDS011;9744;49.364;7.484;2023-03-01T00:20:50;16.60;;;9.37;;
19219;SDS011;9744;49.364;7.484;2023-03-01T00:23:19;19.30;;;10.17;;
19219;SDS011;9744;49.364;7.484;2023-03-01T00:25:47;19.03;;;9.97;;
19219;SDS011;9744;49.364;7.484;2023-03-01T00:28:14;20.63;;;10.37;;
19219;SDS011;9744;49.364;7.484;2023-03-01T00:30:41;23.87;;;10.93;;
19219;SDS011;9744;49.364;7.484;2023-03-01T00:33:08;17.13;;;10.47;;
19219;SDS011;9744;49.364;7.484;2023-03-01T00:35:36;18.03;;;10.60;;
19219;SDS011;9744;49.364;7.484;2023-03-01T00:38:03;23.37;;;10.53;;
19219;SDS011;9744;49.364;7.484;2023-03-01T00:40:33;18.93;;;10.10;;
19219;SDS011;9744;49.364;7.484;2023-03-01T00:43:02;20.20;;;10.30;;
19219;SDS011;9744;49.364;7.484;2023-03-01T00:45:30;19.60;;;9.70;;
19219;SDS011;9744;49.364;7.484;2023-03-01T00:47:57;21.70;;;10.33;;
19219;SDS011;9744;49.364;7.484;2023-03-01T00:50:24;18.53;;;9.20;;
19219;SDS011;9744;49.364;7.484;2023-03-01T00:52:52;17.63;;;9.37;;
19219;SDS011;9744;49.364;7.484;2023-03-01T00:55:20;16.83;;;10.17;;
19219;SDS011;9744;49.364;7.484;2023-03-01T00:57:50;19.73;;;10.03;;
19219;SDS011;9744;49.364;7.484;2023-03-01T01:00:18;17.67;;;10.13;;
19219;SDS011;9744;49.364;7.484;2023-03-01T01:02:47;18.67;;;10.17;;
19219;SDS011;9744;49.364;7.484;2023-03-01T01:05:14;22.40;;;9.97;;
19219;SDS011;9744;49.364;7.484;2023-03-01T01:07:46;17.60;;;10.07;;
19219;SDS011;9744;49.364;7.484;2023-03-01T01:10:14;27.63;;;10.70;;
19219;SDS011;9744;49.364;7.484;2023-03-01T01:12:43;20.53;;;10.90;;
19219;SDS011;9744;49.364;7.484;2023-03-01T01:15:12;18.63;;;9.90;;
19219;SDS011;9744;49.364;7.484;2023-03-01T01:17:42;19.47;;;10.80;;
19219;SDS011;9744;49.364;7.484;2023-03-01T01:20:09;20.40;;;10.50;;
19219;SDS011;9744;49.364;7.484;2023-03-01T01:22:37;22.47;;;11.00;;
19219;SDS011;9744;49.364;7.484;2023-03-01T01:25:05;21.27;;;11.63;;
19219;SDS011;9744;49.364;7.484;2023-03-01T01:27:33;22.37;;;10.43;;
19219;SDS011;9744;49.364;7.484;2023-03-01T01:30:00;21.17;;;10.83;;
19219;SDS011;9744;49.364;7.484;2023-03-01T01:32:29;18.47;;;10.23;;
19219;SDS011;9744;49.364;7.484;2023-03-01T01:34:56;23.87;;;11.70;;
19219;SDS011;9744;49.364;7.484;2023-03-01T01:37:23;18.97;;;10.40;;
19219;SDS011;9744;49.364;7.484;2023-03-01T01:39:56;19.70;;;10.33;;
19219;SDS011;9744;49.364;7.484;2023-03-01T01:42:25;20.97;;;11.10;;
19219;SDS011;9744;49.364;7.484;2023-03-01T01:47:55;19.73;;;9.40;;
19219;SDS011;9744;49.364;7.484;2023-03-01T01:50:26;18.73;;;10.03;;
19219;SDS011;9744;49.364;7.484;2023-03-01T01:53:05;22.40;;;11.10;;
19219;SDS011;9744;49.364;7.484;2023-03-01T01:55:36;18.93;;;10.20;;
19219;SDS011;9744;49.364;7.484;2023-03-01T01:58:06;23.47;;;10.37;;
19219;SDS011;9744;49.364;7.484;2023-03-01T02:00:37;17.40;;;10.30;;
19219;SDS011;9744;49.364;7.484;2023-03-01T02:03:08;18.87;;;10.40;;
19219;SDS011;9744;49.364;7.484;2023-03-01T02:05:38;20.40;;;10.70;;
19219;SDS011;9744;49.364;7.484;2023-03-01T02:08:11;23.43;;;11.40;;
19219;SDS011;9744;49.364;7.484;2023-03-01T02:10:41;19.10;;;10.37;;
19219;SDS011;9744;49.364;7.484;2023-03-01T02:13:09;21.63;;;10.67;;
19219;SDS011;9744;49.364;7.484;2023-03-01T02:15:38;22.73;;;10.33;;
19219;SDS011;9744;49.364;7.484;2023-03-01T02:18:12;21.63;;;10.20;;
19219;SDS011;9744;49.364;7.484;2023-03-01T02:20:48;21.23;;;11.10;;
19219;SDS011;9744;49.364;7.484;2023-03-01T02:23:25;21.70;;;10.70;;
19219;SDS011;9744;49.364;7.484;2023-03-01T02:25:56;22.10;;;10.53;;
19219;SDS011;9744;49.364;7.484;2023-03-01T02:28:32;24.70;;;11.93;;
19219;SDS011;9744;49.364;7.484;2023-03-01T02:31:00;21.33;;;11.93;;
19219;SDS011;9744;49.364;7.484;2023-03-01T02:33:47;23.13;;;11.30;;
19219;SDS011;9744;49.364;7.484;2023-03-01T02:36:15;22.57;;;11.33;;
19219;SDS011;9744;49.364;7.484;2023-03-01T02:38:48;23.73;;;11.73;;
19219;SDS011;9744;49.364;7.484;2023-03-01T02:41:18;25.47;;;11.87;;
19219;SDS011;9744;49.364;7.484;2023-03-01T02:43:47;25.37;;;12.27;;
19219;SDS011;9744;49.364;7.484;2023-03-01T02:46:16;21.87;;;11.87;;
19219;SDS011;9744;49.364;7.484;2023-03-01T02:48:47;22.00;;;12.07;;
19219;SDS011;9744;49.364;7.484;2023-03-01T02:51:22;21.87;;;11.57;;
19219;SDS011;9744;49.364;7.484;2023-03-01T02:54:01;23.43;;;12.40;;
19219;SDS011;9744;49.364;7.484;2023-03-01T02:56:37;25.67;;;12.53;;
19219;SDS011;9744;49.364;7.484;2023-03-01T02:59:05;25.07;;;13.30;;
19219;SDS011;9744;49.364;7.484;2023-03-01T03:01:34;25.10;;;12.30;;
19219;SDS011;9744;49.364;7.484;2023-03-01T03:04:04;23.50;;;12.43;;
19219;SDS011;9744;49.364;7.484;2023-03-01T03:06:32;24.43;;;11.77;;
19219;SDS011;9744;49.364;7.484;2023-03-01T03:09:00;24.77;;;12.67;;
19219;SDS011;9744;49.364;7.484;2023-03-01T03:11:27;25.67;;;12.43;;
19219;SDS011;9744;49.364;7.484;2023-03-01T03:13:54;27.07;;;12.10;;
19219;SDS011;9744;49.364;7.484;2023-03-01T03:16:24;23.00;;;11.67;;
19219;SDS011;9744;49.364;7.484;2023-03-01T03:18:52;22.23;;;11.57;;
19219;SDS011;9744;49.364;7.484;2023-03-01T03:21:19;23.63;;;12.47;;
19219;SDS011;9744;49.364;7.484;2023-03-01T03:23:46;26.53;;;12.27;;
19219;SDS011;9744;49.364;7.484;2023-03-01T03:26:13;23.73;;;12.20;;
19219;SDS011;9744;49.364;7.484;2023-03-01T03:28:40;25.60;;;12.80;;
19219;SDS011;9744;49.364;7.484;2023-03-01T03:31:08;24.83;;;12.57;;
19219;SDS011;9744;49.364;7.484;2023-03-01T03:33:36;25.20;;;13.17;;
19219;SDS011;9744;49.364;7.484;2023-03-01T03:36:04;22.77;;;12.97;;
19219;SDS011;9744;49.364;7.484;2023-03-01T03:38:31;27.07;;;13.43;;
19219;SDS011;9744;49.364;7.484;2023-03-01T03:40:59;26.00;;;12.07;;
19219;SDS011;9744;49.364;7.484;2023-03-01T03:43:29;23.90;;;12.37;;
19219;SDS011;9744;49.364;7.484;2023-03-01T03:45:56;23.20;;;12.07;;
19219;SDS011;9744;49.364;7.484;2023-03-01T03:48:24;21.63;;;11.93;;
19219;SDS011;9744;49.364;7.484;2023-03-01T03:50:53;21.80;;;12.47;;
19219;SDS011;9744;49.364;7.484;2023-03-01T03:53:22;22.83;;;12.83;;
19219;SDS011;9744;49.364;7.484;2023-03-01T03:55:51;23.70;;;12.47;;
19219;SDS011;9744;49.364;7.484;2023-03-01T03:58:19;23.83;;;12.63;;
19219;SDS011;9744;49.364;7.484;2023-03-01T04:00:48;25.33;;;12.87;;
19219;SDS011;9744;49.364;7.484;2023-03-01T04:03:17;24.73;;;13.00;;
19219;SDS011;9744;49.364;7.484;2023-03-01T04:05:45;27.90;;;15.07;;
19219;SDS011;9744;49.364;7.484;2023-03-01T04:08:14;28.60;;;13.73;;
19219;SDS011;9744;49.364;7.484;2023-03-01T04:10:46;24.43;;;12.40;;
19219;SDS011;9744;49.364;7.484;2023-03-01T04:13:16;29.67;;;13.30;;
19219;SDS011;9744;49.364;7.484;2023-03-01T04:15:45;25.67;;;12.57;;
19219;SDS011;9744;49.364;7.484;2023-03-01T04:18:13;27.57;;;13.03;;
19219;SDS011;9744;49.364;7.484;2023-03-01T04:20:42;31.70;;;13.73;;
19219;SDS011;9744;49.364;7.484;2023-03-01T04:23:10;28.30;;;13.17;;
19219;SDS011;9744;49.364;7.484;2023-03-01T04:25:46;28.07;;;13.77;;
19219;SDS011;9744;49.364;7.484;2023-03-01T04:28:19;26.77;;;13.83;;
19219;SDS011;9744;49.364;7.484;2023-03-01T04:30:46;26.77;;;12.43;;
19219;SDS011;9744;49.364;7.484;2023-03-01T04:33:13;30.90;;;13.83;;
19219;SDS011;9744;49.364;7.484;2023-03-01T04:35:41;31.23;;;14.00;;
19219;SDS011;9744;49.364;7.484;2023-03-01T04:38:08;28.57;;;13.07;;
19219;SDS011;9744;49.364;7.484;2023-03-01T04:40:35;25.23;;;13.50;;
19219;SDS011;9744;49.364;7.484;2023-03-01T04:43:05;30.80;;;14.20;;
19219;SDS011;9744;49.364;7.484;2023-03-01T04:45:32;27.03;;;13.17;;
19219;SDS011;9744;49.364;7.484;2023-03-01T04:48:00;31.23;;;14.93;;
19219;SDS011;9744;49.364;7.484;2023-03-01T04:50:28;24.37;;;12.20;;
19219;SDS011;9744;49.364;7.484;2023-03-01T04:52:55;29.90;;;14.03;;
19219;SDS011;9744;49.364;7.484;2023-03-01T04:55:24;31.00;;;14.57;;
19219;SDS011;9744;49.364;7.484;2023-03-01T04:57:52;28.13;;;13.53;;
19219;SDS011;9744;49.364;7.484;2023-03-01T05:00:21;27.07;;;13.13;;
19219;SDS011;9744;49.364;7.484;2023-03-01T05:02:50;28.80;;;14.10;;
19219;SDS011;9744;49.364;7.484;2023-03-01T05:05:20;27.67;;;14.33;;
19219;SDS011;9744;49.364;7.484;2023-03-01T05:07:51;26.93;;;14.60;;
19219;SDS011;9744;49.364;7.484;2023-03-01T05:10:19;29.67;;;14.87;;
19219;SDS011;9744;49.364;7.484;2023-03-01T05:12:46;31.73;;;15.07;;
19219;SDS011;9744;49.364;7.484;2023-03-01T05:15:14;29.10;;;15.50;;
19219;SDS011;9744;49.364;7.484;2023-03-01T05:17:42;29.30;;;14.60;;
19219;SDS011;9744;49.364;7.484;2023-03-01T05:20:10;27.80;;;13.90;;
19219;SDS011;9744;49.364;7.484;2023-03-01T05:22:37;29.67;;;14.57;;
19219;SDS011;9744;49.364;7.484;2023-03-01T05:25:05;28.67;;;14.80;;
19219;SDS011;9744;49.364;7.484;2023-03-01T05:27:33;38.40;;;16.20;;
19219;SDS011;9744;49.364;7.484;2023-03-01T05:30:01;30.23;;;14.87;;
19219;SDS011;9744;49.364;7.484;2023-03-01T05:32:39;29.83;;;14.70;;
19219;SDS011;9744;49.364;7.484;2023-03-01T05:35:10;32.23;;;15.23;;
19219;SDS011;9744;49.364;7.484;2023-03-01T05:37:40;30.30;;;15.20;;
19219;SDS011;9744;49.364;7.484;2023-03-01T05:40:09;31.93;;;15.30;;
19219;SDS011;9744;49.364;7.484;2023-03-01T05:42:44;31.07;;;14.90;;
19219;SDS011;9744;49.364;7.484;2023-03-01T05:45:13;29.23;;;15.07;;
19219;SDS011;9744;49.364;7.484;2023-03-01T05:47:41;35.57;;;16.13;;
19219;SDS011;9744;49.364;7.484;2023-03-01T05:50:15;32.17;;;15.07;;
19219;SDS011;9744;49.364;7.484;2023-03-01T05:52:45;33.60;;;16.20;;
19219;SDS011;9744;49.364;7.484;2023-03-01T05:55:14;33.70;;;16.33;;
19219;SDS011;9744;49.364;7.484;2023-03-01T05:57:43;31.90;;;15.67;;
19219;SDS011;9744;49.364;7.484;2023-03-01T06:00:11;32.37;;;15.37;;
19219;SDS011;9744;49.364;7.484;2023-03-01T06:02:40;39.27;;;16.47;;
19219;SDS011;9744;49.364;7.484;2023-03-01T06:05:07;31.77;;;15.50;;
19219;SDS011;9744;49.364;7.484;2023-03-01T06:07:37;29.50;;;15.77;;
19219;SDS011;9744;49.364;7.484;2023-03-01T06:10:05;31.13;;;15.53;;
19219;SDS011;9744;49.364;7.484;2023-03-01T06:12:34;27.10;;;14.40;;
19219;SDS011;9744;49.364;7.484;2023-03-01T06:15:03;32.13;;;15.67;;
19219;SDS011;9744;49.364;7.484;2023-03-01T06:17:32;32.70;;;15.80;;
19219;SDS011;9744;49.364;7.484;2023-03-01T06:20:02;37.93;;;16.77;;
19219;SDS011;9744;49.364;7.484;2023-03-01T06:22:31;35.40;;;17.17;;
19219;SDS011;9744;49.364;7.484;2023-03-01T06:25:00;34.97;;;16.23;;
19219;SDS011;9744;49.364;7.484;2023-03-01T06:27:27;34.73;;;16.73;;
19219;SDS011;9744;49.364;7.484;2023-03-01T06:29:54;34.93;;;16.07;;
19219;SDS011;9744;49.364;7.484;2023-03-01T06:32:21;30.47;;;16.47;;
19219;SDS011;9744;49.364;7.484;2023-03-01T06:34:49;32.93;;;16.43;;
19219;SDS011;9744;49.364;7.484;2023-03-01T06:37:16;35.60;;;17.20;;
19219;SDS011;9744;49.364;7.484;2023-03-01T06:39:43;37.57;;;19.17;;
19219;SDS011;9744;49.364;7.484;2023-03-01T06:42:12;37.00;;;18.23;;
19219;SDS011;9744;49.364;7.484;2023-03-01T06:44:39;36.27;;;17.43;;
19219;SDS011;9744;49.364;7.484;2023-03-01T06:47:06;35.23;;;17.23;;
19219;SDS011;9744;49.364;7.484;2023-03-01T06:49:33;35.90;;;16.97;;
19219;SDS011;9744;49.364;7.484;2023-03-01T06:52:00;31.50;;;16.70;;
19219;SDS011;9744;49.364;7.484;2023-03-01T06:54:28;33.80;;;16.97;;
19219;SDS011;9744;49.364;7.484;2023-03-01T06:56:55;35.67;;;16.43;;
19219;SDS011;9744;49.364;7.484;2023-03-01T06:59:23;34.13;;;17.47;;
19219;SDS011;9744;49.364;7.484;2023-03-01T07:01:50;37.00;;;18.37;;
19219;SDS011;9744;49.364;7.484;2023-03-01T07:04:18;36.43;;;17.17;;
19219;SDS011;9744;49.364;7.484;2023-03-01T07:06:45;34.47;;;17.13;;
19219;SDS011;9744;49.364;7.484;2023-03-01T07:09:19;33.50;;;17.50;;
19219;SDS011;9744;49.364;7.484;2023-03-01T07:11:47;34.17;;;18.00;;
19219;SDS011;9744;49.364;7.484;2023-03-01T07:14:14;33.37;;;16.90;;
19219;SDS011;9744;49.364;7.484;2023-03-01T07:16:43;32.43;;;16.07;;
19219;SDS011;9744;49.364;7.484;2023-03-01T07:19:10;36.10;;;18.40;;
19219;SDS011;9744;49.364;7.484;2023-03-01T07:21:37;34.90;;;17.53;;
19219;SDS011;9744;49.364;7.484;2023-03-01T07:24:05;34.97;;;17.30;;
19219;SDS011;9744;49.364;7.484;2023-03-01T07:26:33;41.07;;;18.03;;
19219;SDS011;9744;49.364;7.484;2023-03-01T07:29:01;41.17;;;19.63;;
19219;SDS011;9744;49.364;7.484;2023-03-01T07:31:29;39.47;;;17.33;;
19219;SDS011;9744;49.364;7.484;2023-03-01T07:33:58;34.40;;;17.47;;
19219;SDS011;9744;49.364;7.484;2023-03-01T07:36:25;38.20;;;18.23;;
19219;SDS011;9744;49.364;7.484;2023-03-01T07:38:52;35.00;;;18.33;;
19219;SDS011;9744;49.364;7.484;2023-03-01T07:41:20;37.30;;;18.73;;
19219;SDS011;9744;49.364;7.484;2023-03-01T07:43:48;33.40;;;17.07;;
19219;SDS011;9744;49.364;7.484;2023-03-01T07:46:15;38.30;;;18.30;;
19219;SDS011;9744;49.364;7.484;2023-03-01T07:48:44;35.30;;;17.90;;
19219;SDS011;9744;49.364;7.484;2023-03-01T07:51:13;33.77;;;17.47;;
19219;SDS011;9744;49.364;7.484;2023-03-01T07:53:40;31.83;;;16.93;;
19219;SDS011;9744;49.364;7.484;2023-03-01T07:56:08;46.03;;;19.30;;
19219;SDS011;9744;49.364;7.484;2023-03-01T07:58:37;36.60;;;17.87;;
19219;SDS011;9744;49.364;7.484;2023-03-01T08:01:07;34.30;;;16.70;;
19219;SDS011;9744;49.364;7.484;2023-03-01T08:03:35;32.10;;;16.70;;
19219;SDS011;9744;49.364;7.484;2023-03-01T08:06:03;40.93;;;18.30;;
19219;SDS011;9744;49.364;7.484;2023-03-01T08:08:33;35.53;;;18.13;;
19219;SDS011;9744;49.364;7.484;2023-03-01T08:11:02;35.80;;;15.98;;
19219;SDS011;9744;49.364;7.484;2023-03-01T08:13:30;34.33;;;17.15;;
19219;SDS011;9744;49.364;7.484;2023-03-01T08:16:00;39.93;;;19.10;;
19219;SDS011;9744;49.364;7.484;2023-03-01T08:18:28;38.72;;;17.85;;
19219;SDS011;9744;49.364;7.484;2023-03-01T08:20:56;36.70;;;18.30;;
19219;SDS011;9744;49.364;7.484;2023-03-01T08:23:27;37.40;;;17.35;;
19219;SDS011;9744;49.364;7.484;2023-03-01T08:25:57;31.73;;;16.75;;
19219;SDS011;9744;49.364;7.484;2023-03-01T08:28:31;35.40;;;17.30;;
19219;SDS011;9744;49.364;7.484;2023-03-01T08:30:58;36.47;;;17.98;;
19219;SDS011;9744;49.364;7.484;2023-03-01T08:33:25;36.53;;;17.85;;
19219;SDS011;9744;49.364;7.484;2023-03-01T08:36:01;34.05;;;18.70;;
19219;SDS011;9744;49.364;7.484;2023-03-01T08:38:29;43.72;;;18.52;;
19219;SDS011;9744;49.364;7.484;2023-03-01T08:41:00;37.67;;;17.88;;
19219;SDS011;9744;49.364;7.484;2023-03-01T08:43:27;32.58;;;17.88;;
19219;SDS011;9744;49.364;7.484;2023-03-01T08:45:55;33.47;;;17.27;;
19219;SDS011;9744;49.364;7.484;2023-03-01T08:48:22;34.13;;;17.50;;
19219;SDS011;9744;49.364;7.484;2023-03-01T08:50:49;39.38;;;19.63;;
19219;SDS011;9744;49.364;7.484;2023-03-01T08:53:16;33.55;;;18.65;;
19219;SDS011;9744;49.364;7.484;2023-03-01T08:55:44;32.35;;;17.98;;
19219;SDS011;9744;49.364;7.484;2023-03-01T08:58:12;29.30;;;17.65;;
19219;SDS011;9744;49.364;7.484;2023-03-01T09:00:40;33.70;;;16.85;;
19219;SDS011;9744;49.364;7.484;2023-03-01T09:03:07;36.10;;;18.35;;
19219;SDS011;9744;49.364;7.484;2023-03-01T09:05:34;42.22;;;18.23;;
19219;SDS011;9744;49.364;7.484;2023-03-01T09:08:02;33.95;;;17.60;;
19219;SDS011;9744;49.364;7.484;2023-03-01T09:10:29;35.28;;;17.33;;
19219;SDS011;9744;49.364;7.484;2023-03-01T09:12:56;33.95;;;18.17;;
19219;SDS011;9744;49.364;7.484;2023-03-01T09:15:29;34.08;;;17.58;;
19219;SDS011;9744;49.364;7.484;2023-03-01T09:17:56;33.60;;;17.35;;
19219;SDS011;9744;49.364;7.484;2023-03-01T09:20:24;31.88;;;17.67;;
19219;SDS011;9744;49.364;7.484;2023-03-01T09:22:51;40.05;;;18.02;;
19219;SDS011;9744;49.364;7.484;2023-03-01T09:25:19;35.72;;;19.95;;
19219;SDS011;9744;49.364;7.484;2023-03-01T09:27:46;42.50;;;19.17;;
19219;SDS011;9744;49.364;7.484;2023-03-01T09:30:14;31.95;;;17.67;;
19219;SDS011;9744;49.364;7.484;2023-03-01T09:32:43;35.03;;;18.25;;
19219;SDS011;9744;49.364;7.484;2023-03-01T09:35:10;35.83;;;18.00;;
19219;SDS011;9744;49.364;7.484;2023-03-01T09:37:38;30.73;;;17.35;;
19219;SDS011;9744;49.364;7.484;2023-03-01T09:40:10;31.40;;;18.05;;
19219;SDS011;9744;49.364;7.484;2023-03-01T09:42:45;31.08;;;16.95;;
19219;SDS011;9744;49.364;7.484;2023-03-01T09:45:18;32.33;;;17.02;;
19219;SDS011;9744;49.364;7.484;2023-03-01T09:47:55;27.75;;;16.55;;
19219;SDS011;9744;49.364;7.484;2023-03-01T09:50:31;32.17;;;17.33;;
19219;SDS011;9744;49.364;7.484;2023-03-01T09:53:02;29.65;;;16.98;;
19219;SDS011;9744;49.364;7.484;2023-03-01T09:55:34;28.77;;;17.23;;
19219;SDS011;9744;49.364;7.484;2023-03-01T09:58:08;29.92;;;16.60;;
19219;SDS011;9744;49.364;7.484;2023-03-01T10:00:54;30.65;;;17.35;;
19219;SDS011;9744;49.364;7.484;2023-03-01T10:03:28;25.58;;;15.35;;
19219;SDS011;9744;49.364;7.484;2023-03-01T10:06:01;30.38;;;17.42;;
19219;SDS011;9744;49.364;7.484;2023-03-01T10:08:36;25.67;;;15.65;;
19219;SDS011;9744;49.364;7.484;2023-03-01T10:11:15;26.60;;;15.43;;
19219;SDS011;9744;49.364;7.484;2023-03-01T10:13:48;30.40;;;19.20;;
19219;SDS011;9744;49.364;7.484;2023-03-01T10:16:22;28.25;;;16.83;;
19219;SDS011;9744;49.364;7.484;2023-03-01T10:18:58;36.20;;;18.05;;
19219;SDS011;9744;49.364;7.484;2023-03-01T10:21:28;31.75;;;18.23;;
19219;SDS011;9744;49.364;7.484;2023-03-01T10:23:59;30.60;;;17.95;;
19219;SDS011;9744;49.364;7.484;2023-03-01T10:26:40;29.38;;;16.55;;
19219;SDS011;9744;49.364;7.484;2023-03-01T10:29:14;31.08;;;16.75;;
19219;SDS011;9744;49.364;7.484;2023-03-01T10:31:42;28.95;;;16.63;;
19219;SDS011;9744;49.364;7.484;2023-03-01T10:34:14;29.90;;;16.73;;
19219;SDS011;9744;49.364;7.484;2023-03-01T10:36:43;28.95;;;16.35;;
19219;SDS011;9744;49.364;7.484;2023-03-01T10:39:14;31.83;;;17.48;;
19219;SDS011;9744;49.364;7.484;2023-03-01T10:41:56;29.20;;;17.08;;
19219;SDS011;9744;49.364;7.484;2023-03-01T10:44:39;27.10;;;16.77;;
19219;SDS011;9744;49.364;7.484;2023-03-01T10:47:12;28.48;;;17.05;;
19219;SDS011;9744;49.364;7.484;2023-03-01T10:50:00;26.15;;;16.60;;
19219;SDS011;9744;49.364;7.484;2023-03-01T10:52:29;31.98;;;17.55;;
19219;SDS011;9744;49.364;7.484;2023-03-01T10:54:59;30.98;;;16.88;;
19219;SDS011;9744;49.364;7.484;2023-03-01T10:57:30;31.08;;;17.83;;
19219;SDS011;9744;49.364;7.484;2023-03-01T11:00:10;30.42;;;17.48;;
19219;SDS011;9744;49.364;7.484;2023-03-01T11:03:01;26.42;;;15.45;;
19219;SDS011;9744;49.364;7.484;2023-03-01T11:05:48;31.45;;;17.83;;
19219;SDS011;9744;49.364;7.484;2023-03-01T11:08:28;32.55;;;17.92;;
19219;SDS011;9744;49.364;7.484;2023-03-01T11:11:04;27.70;;;17.63;;
19219;SDS011;9744;49.364;7.484;2023-03-01T11:13:34;27.65;;;16.50;;
19219;SDS011;9744;49.364;7.484;2023-03-01T11:16:03;26.58;;;16.48;;
19219;SDS011;9744;49.364;7.484;2023-03-01T11:18:33;28.40;;;18.35;;
19219;SDS011;9744;49.364;7.484;2023-03-01T11:21:01;29.23;;;17.85;;
19219;SDS011;9744;49.364;7.484;2023-03-01T11:23:30;28.35;;;17.40;;
19219;SDS011;9744;49.364;7.484;2023-03-01T11:26:01;27.42;;;16.45;;
19219;SDS011;9744;49.364;7.484;2023-03-01T11:28:32;30.52;;;17.67;;
19219;SDS011;9744;49.364;7.484;2023-03-01T11:31:02;27.02;;;16.70;;
19219;SDS011;9744;49.364;7.484;2023-03-01T11:33:35;28.95;;;17.75;;
19219;SDS011;9744;49.364;7.484;2023-03-01T11:36:11;26.63;;;16.65;;
19219;SDS011;9744;49.364;7.484;2023-03-01T11:38:45;30.67;;;18.48;;
19219;SDS011;9744;49.364;7.484;2023-03-01T11:41:14;32.70;;;17.73;;
19219;SDS011;9744;49.364;7.484;2023-03-01T11:43:47;30.67;;;17.88;;
19219;SDS011;9744;49.364;7.484;2023-03-01T11:49:21;27.90;;;17.00;;
19219;SDS011;9744;49.364;7.484;2023-03-01T11:52:06;33.13;;;18.70;;
19219;SDS011;9744;49.364;7.484;2023-03-01T11:54:42;31.33;;;18.42;;
19219;SDS011;9744;49.364;7.484;2023-03-01T11:57:20;28.63;;;17.73;;
19219;SDS011;9744;49.364;7.484;2023-03-01T12:00:04;37.15;;;17.65;;
19219;SDS011;9744;49.364;7.484;2023-03-01T12:05:55;33.67;;;16.20;;
19219;SDS011;9744;49.364;7.484;2023-03-01T12:08:52;26.65;;;15.73;;
19219;SDS011;9744;49.364;7.484;2023-03-01T12:11:46;29.85;;;16.95;;
19219;SDS011;9744;49.364;7.484;2023-03-01T12:14:36;25.73;;;17.33;;
19219;SDS011;9744;49.364;7.484;2023-03-01T12:17:29;26.85;;;16.58;;
19219;SDS011;9744;49.364;7.484;2023-03-01T12:20:22;28.10;;;17.63;;
19219;SDS011;9744;49.364;7.484;2023-03-01T12:23:04;29.55;;;17.30;;
19219;SDS011;9744;49.364;7.484;2023-03-01T12:25:46;30.58;;;17.73;;
19219;SDS011;9744;49.364;7.484;2023-03-01T12:28:20;31.60;;;18.45;;
19219;SDS011;9744;49.364;7.484;2023-03-01T12:31:05;31.35;;;18.75;;
19219;SDS011;9744;49.364;7.484;2023-03-01T12:33:52;29.88;;;18.25;;
19219;SDS011;9744;49.364;7.484;2023-03-01T12:39:26;29.45;;;18.27;;
19219;SDS011;9744;49.364;7.484;2023-03-01T12:42:12;29.80;;;17.77;;
19219;SDS011;9744;49.364;7.484;2023-03-01T12:44:48;26.58;;;17.75;;
19219;SDS011;9744;49.364;7.484;2023-03-01T12:47:31;26.63;;;17.25;;
19219;SDS011;9744;49.364;7.484;2023-03-01T12:50:11;35.15;;;18.60;;
19219;SDS011;9744;49.364;7.484;2023-03-01T12:52:44;25.02;;;16.35;;
19219;SDS011;9744;49.364;7.484;2023-03-01T12:55:18;29.23;;;17.67;;
19219;SDS011;9744;49.364;7.484;2023-03-01T12:57:56;24.38;;;16.35;;
19219;SDS011;9744;49.364;7.484;2023-03-01T13:00:31;30.33;;;16.75;;
19219;SDS011;9744;49.364;7.484;2023-03-01T13:03:05;25.05;;;16.10;;
19219;SDS011;9744;49.364;7.484;2023-03-01T13:05:45;26.45;;;16.88;;
19219;SDS011;9744;49.364;7.484;2023-03-01T13:08:22;25.77;;;16.55;;
19219;SDS011;9744;49.364;7.484;2023-03-01T13:10:56;27.15;;;16.77;;
19219;SDS011;9744;49.364;7.484;2023-03-01T13:13:28;27.40;;;15.95;;
19219;SDS011;9744;49.364;7.484;2023-03-01T13:15:55;26.67;;;15.63;;
19219;SDS011;9744;49.364;7.484;2023-03-01T13:18:28;25.85;;;16.20;;
19219;SDS011;9744;49.364;7.484;2023-03-01T13:20:57;24.88;;;16.80;;
19219;SDS011;9744;49.364;7.484;2023-03-01T13:23:31;29.58;;;17.13;;
19219;SDS011;9744;49.364;7.484;2023-03-01T13:26:03;23.83;;;16.50;;
19219;SDS011;9744;49.364;7.484;2023-03-01T13:28:41;25.98;;;15.52;;
19219;SDS011;9744;49.364;7.484;2023-03-01T13:37:21;28.50;;;16.40;;
19219;SDS011;9744;49.364;7.484;2023-03-01T13:39:55;26.35;;;16.90;;
19219;SDS011;9744;49.364;7.484;2023-03-01T13:42:40;28.33;;;17.27;;
19219;SDS011;9744;49.364;7.484;2023-03-01T13:48:04;27.63;;;16.98;;
19219;SDS011;9744;49.364;7.484;2023-03-01T13:50:38;27.65;;;16.73;;
19219;SDS011;9744;49.364;7.484;2023-03-01T13:53:14;22.08;;;15.07;;
19219;SDS011;9744;49.364;7.484;2023-03-01T13:55:45;28.33;;;15.65;;
19219;SDS011;9744;49.364;7.484;2023-03-01T13:58:16;24.25;;;15.57;;
19219;SDS011;9744;49.364;7.484;2023-03-01T14:00:54;30.98;;;16.00;;
19219;SDS011;9744;49.364;7.484;2023-03-01T14:03:22;29.55;;;16.23;;
19219;SDS011;9744;49.364;7.484;2023-03-01T14:05:57;29.10;;;17.92;;
19219;SDS011;9744;49.364;7.484;2023-03-01T14:08:28;28.70;;;16.90;;
19219;SDS011;9744;49.364;7.484;2023-03-01T14:17:00;28.10;;;17.23;;
19219;SDS011;9744;49.364;7.484;2023-03-01T14:19:36;26.13;;;15.98;;
19219;SDS011;9744;49.364;7.484;2023-03-01T14:22:06;25.33;;;16.50;;
19219;SDS011;9744;49.364;7.484;2023-03-01T14:24:44;27.13;;;16.30;;
19219;SDS011;9744;49.364;7.484;2023-03-01T14:27:14;27.73;;;16.90;;
19219;SDS011;9744;49.364;7.484;2023-03-01T14:29:42;34.00;;;16.75;;
19219;SDS011;9744;49.364;7.484;2023-03-01T14:32:15;28.13;;;16.33;;
19219;SDS011;9744;49.364;7.484;2023-03-01T14:34:46;27.13;;;16.83;;
19219;SDS011;9744;49.364;7.484;2023-03-01T14:37:17;23.95;;;15.13;;
19219;SDS011;9744;49.364;7.484;2023-03-01T14:39:49;28.45;;;16.63;;
19219;SDS011;9744;49.364;7.484;2023-03-01T14:42:17;24.60;;;15.95;;
19219;SDS011;9744;49.364;7.484;2023-03-01T14:44:46;26.33;;;15.68;;
19219;SDS011;9744;49.364;7.484;2023-03-01T14:47:19;30.55;;;17.23;;
19219;SDS011;9744;49.364;7.484;2023-03-01T14:49:54;28.15;;;16.30;;
19219;SDS011;9744;49.364;7.484;2023-03-01T14:52:25;29.05;;;15.95;;
19219;SDS011;9744;49.364;7.484;2023-03-01T14:55:00;25.85;;;16.58;;
19219;SDS011;9744;49.364;7.484;2023-03-01T14:57:30;28.35;;;15.95;;
19219;SDS011;9744;49.364;7.484;2023-03-01T14:59:59;29.02;;;17.15;;
19219;SDS011;9744;49.364;7.484;2023-03-01T15:02:32;26.45;;;17.13;;
19219;SDS011;9744;49.364;7.484;2023-03-01T15:05:02;27.38;;;15.20;;
19219;SDS011;9744;49.364;7.484;2023-03-01T15:07:33;26.08;;;15.93;;
19219;SDS011;9744;49.364;7.484;2023-03-01T15:10:02;23.13;;;14.82;;
19219;SDS011;9744;49.364;7.484;2023-03-01T15:12:35;25.15;;;14.68;;
19219;SDS011;9744;49.364;7.484;2023-03-01T15:17:51;23.50;;;15.07;;
19219;SDS011;9744;49.364;7.484;2023-03-01T15:20:22;25.92;;;14.27;;
19219;SDS011;9744;49.364;7.484;2023-03-01T15:22:52;24.30;;;15.43;;
19219;SDS011;9744;49.364;7.484;2023-03-01T15:25:21;23.52;;;13.63;;
19219;SDS011;9744;49.364;7.484;2023-03-01T15:27:51;22.38;;;13.73;;